Terminal Aerodrome Forecast
Issued by NWS

Home | Current Version | Previous Version | Text Only | Print | Product List | Glossary On
Versions: 1 2 3 4 5 6 7 8 9 10 11 12 13 14
391
FTUS41 KCAR 051134
TAFBHB
TAF
KBHB 051134Z 0512/0612 VRB03KT P6SM SCT250
     FM051800 13005KT 5SM -SNRA OVC025
     FM052000 12006KT 2SM -SN SCT008 OVC015
     FM060100 08004KT 4SM -SN SCT008 OVC015
     FM060300 04004KT P6SM OVC015
     FM060600 35008KT P6SM BKN025
     FM060900 34007KT P6SM SCT060=

USA.gov is the U.S. government's official web portal to all federal, state and local government web resources and services.